| time (UTC) | temp C | wind direction | speed KPH | gust KPH | rain 1hr cm | rain 24hr cm | rain mn cm | humidity % | barometer mb |
| 20260508023037 | 16 | 138 | 9.7 | 12.9 | 0.00 | 0.03 | 0.03 | 51 | 1014.6 |
| 20260508021531 | 17 | 0 | 0.0 | 11.3 | 0.00 | 0.03 | 0.03 | 46 | 1014.6 |
| 20260508020029 | 17 | 80 | 6.4 | 12.9 | 0.00 | 0.03 | 0.03 | 47 | 1014.4 |
| 20260508014530 | 17 | 63 | 4.8 | 12.9 | 0.00 | 0.03 | 0.03 | 48 | 1014.3 |
| 20260508013031 | 17 | 34 | 8.0 | 14.5 | 0.00 | 0.03 | 0.03 | 45 | 1014.2 |
| 20260508011538 | 17 | 44 | 11.3 | 19.3 | 0.00 | 0.03 | 0.03 | 44 | 1014.0 |
| 20260508010031 | 18 | 341 | 12.9 | 24.1 | 0.00 | 0.03 | 0.03 | 43 | 1014.0 |
| 20260508004534 | 18 | 12 | 17.7 | 24.1 | 0.00 | 0.03 | 0.03 | 44 | 1014.0 |
| 20260508003034 | 18 | 31 | 16.1 | 27.4 | 0.00 | 0.03 | 0.03 | 44 | 1014.0 |
| 20260508001544 | 18 | 25 | 20.9 | 32.2 | 0.00 | 0.03 | 0.03 | 41 | 1014.1 |
| 20260508000031 | 19 | 350 | 20.9 | 37.0 | 0.00 | 0.03 | 0.03 | 40 | 1013.8 |
| 20260507234530 | 19 | 321 | 20.9 | 37.0 | 0.00 | 0.03 | 0.03 | 42 | 1014.0 |
| 20260507233035 | 19 | 267 | 12.9 | 27.4 | 0.00 | 0.03 | 0.03 | 42 | 1013.5 |
| 20260507231532 | 19 | 246 | 14.5 | 25.7 | 0.00 | 0.03 | 0.03 | 42 | 1013.6 |
| 20260507230035 | 19 | 263 | 14.5 | 20.9 | 0.00 | 0.03 | 0.03 | 40 | 1013.8 |
| 20260507224535 | 20 | 271 | 12.9 | 24.1 | 0.00 | 0.03 | 0.03 | 39 | 1013.7 |
| 20260507223031 | 20 | 277 | 8.0 | 22.5 | 0.00 | 0.03 | 0.03 | 38 | 1013.7 |
| 20260507221531 | 20 | 243 | 14.5 | 24.1 | 0.00 | 0.03 | 0.03 | 38 | 1013.9 |
| 20260507220031 | 19 | 284 | 9.7 | 25.7 | 0.00 | 0.03 | 0.03 | 41 | 1014.1 |
| 20260507214530 | 20 | 275 | 17.7 | 27.4 | 0.00 | 0.03 | 0.03 | 42 | 1014.6 |
| 20260507213036 | 20 | 281 | 19.3 | 30.6 | 0.00 | 0.03 | 0.03 | 42 | 1014.7 |
| 20260507211543 | 19 | 270 | 11.3 | 24.1 | 0.00 | 0.03 | 0.03 | 42 | 1014.9 |
| 20260507210035 | 19 | 284 | 17.7 | 24.1 | 0.00 | 0.03 | 0.03 | 40 | 1015.2 |
| 20260507204533 | 19 | 295 | 16.1 | 27.4 | 0.00 | 0.03 | 0.03 | 40 | 1015.2 |
| 20260507203032 | 19 | 266 | 19.3 | 32.2 | 0.00 | 0.03 | 0.03 | 40 | 1015.1 |
| 20260507201541 | 19 | 251 | 17.7 | 27.4 | 0.00 | 0.03 | 0.03 | 40 | 1015.2 |
| 20260507200041 | 18 | 236 | 16.1 | 22.5 | 0.00 | 0.03 | 0.03 | 42 | 1015.1 |
| 20260507194532 | 18 | 302 | 9.7 | 24.1 | 0.00 | 0.03 | 0.03 | 39 | 1015.1 |
| 20260507193039 | 18 | 248 | 4.8 | 19.3 | 0.00 | 0.03 | 0.03 | 40 | 1015.3 |
| 20260507191531 | 17 | 251 | 4.8 | 20.9 | 0.00 | 0.03 | 0.03 | 41 | 1015.3 |
| 20260507190033 | 17 | 0 | 1.6 | 17.7 | 0.00 | 0.03 | 0.03 | 42 | 1015.4 |
| 20260507184534 | 16 | 0 | 1.6 | 14.5 | 0.00 | 0.03 | 0.03 | 42 | 1015.6 |
| 20260507183033 | 16 | 236 | 8.0 | 19.3 | 0.00 | 0.03 | 0.03 | 42 | 1015.7 |
| 20260507181531 | 16 | 299 | 9.7 | 19.3 | 0.00 | 0.03 | 0.03 | 44 | 1015.7 |
| 20260507180044 | 16 | 285 | 9.7 | 19.3 | 0.00 | 0.03 | 0.03 | 43 | 1015.9 |
| 20260507174529 | 16 | 315 | 14.5 | 20.9 | 0.00 | 0.03 | 0.03 | 44 | 1016.0 |
| 20260507173041 | 16 | 292 | 19.3 | 25.7 | 0.00 | 0.03 | 0.03 | 45 | 1015.9 |
| 20260507171530 | 16 | 343 | 14.5 | 24.1 | 0.00 | 0.03 | 0.03 | 45 | 1015.8 |
| 20260507170044 | 16 | 304 | 14.5 | 20.9 | 0.00 | 0.03 | 0.03 | 46 | 1015.9 |
| 20260507164531 | 16 | 284 | 14.5 | 19.3 | 0.00 | 0.03 | 0.03 | 49 | 1015.7 |
| 20260507163031 | 16 | 300 | 12.9 | 20.9 | 0.00 | 0.03 | 0.03 | 50 | 1015.6 |
| 20260507161531 | 15 | 271 | 11.3 | 19.3 | 0.00 | 0.03 | 0.03 | 51 | 1015.7 |
| 20260507160030 | 16 | 323 | 14.5 | 24.1 | 0.00 | 0.03 | 0.03 | 54 | 1015.6 |
| 20260507154530 | 15 | 309 | 16.1 | 22.5 | 0.00 | 0.03 | 0.03 | 53 | 1015.6 |
| 20260507153031 | 15 | 328 | 12.9 | 19.3 | 0.00 | 0.03 | 0.03 | 56 | 1015.3 |
| 20260507151532 | 15 | 277 | 9.7 | 14.5 | 0.00 | 0.03 | 0.03 | 61 | 1015.3 |
| 20260507150029 | 14 | 298 | 6.4 | 14.5 | 0.00 | 0.03 | 0.03 | 65 | 1015.1 |
| 20260507144532 | 13 | 249 | 4.8 | 11.3 | 0.00 | 0.03 | 0.03 | 70 | 1015.1 |
| 20260507143030 | 12 | 229 | 8.0 | 14.5 | 0.00 | 0.03 | 0.03 | 73 | 1014.8 |
| 20260507141529 | 12 | 175 | 4.8 | 9.7 | 0.00 | 0.03 | 0.03 | 75 | 1014.6 |
| 20260507140035 | 11 | 198 | 6.4 | 11.3 | 0.03 | 0.03 | 0.03 | 75 | 1014.5 |
| 20260507134530 | 10 | 178 | 4.8 | 11.3 | 0.03 | 0.03 | 0.03 | 76 | 1014.4 |
| 20260507133059 | 10 | 297 | 1.6 | 6.4 | 0.03 | 0.03 | 0.03 | 76 | 1014.2 |
| 20260507131540 | 10 | 302 | 1.6 | 6.4 | 0.03 | 0.03 | 0.03 | 77 | 1014.2 |
| 20260507130035 | 10 | 0 | 0.0 | 0.0 | 0.00 | 0.00 | 0.00 | 73 | 1014.1 |
| 20260507124531 | 10 | 0 | 0.0 | 8.0 | 0.00 | 0.00 | 0.00 | 72 | 1014.1 |
| 20260507123032 | 11 | 342 | 3.2 | 8.0 | 0.00 | 0.00 | 0.00 | 71 | 1013.8 |
| 20260507121706 | 10 | 325 | 3.2 | 12.9 | 0.00 | 0.00 | 0.00 | 73 | 1013.6 |
| 20260507120030 | 11 | 338 | 4.8 | 12.9 | 0.00 | 0.00 | 0.00 | 73 | 1013.6 |
| 20260507114530 | 11 | 315 | 16.1 | 24.1 | 0.00 | 0.00 | 0.00 | 69 | 1013.7 |
| 20260507113029 | 12 | 352 | 3.2 | 11.3 | 0.00 | 0.00 | 0.00 | 63 | 1013.4 |
| 20260507111529 | 13 | 0 | 0.0 | 9.7 | 0.00 | 0.00 | 0.00 | 56 | 1013.0 |
| 20260507110107 | 13 | 288 | 9.7 | 19.3 | 0.00 | 0.00 | 0.00 | 54 | 1012.8 |
| 20260507104530 | 14 | 284 | 14.5 | 20.9 | 0.00 | 0.00 | 0.00 | 53 | 1012.7 |
| 20260507103040 | 13 | 277 | 12.9 | 17.7 | 0.00 | 0.00 | 0.00 | 54 | 1012.5 |
| 20260507101530 | 13 | 281 | 6.4 | 11.3 | 0.00 | 0.00 | 0.00 | 55 | 1012.4 |
| 20260507100031 | 13 | 263 | 4.8 | 14.5 | 0.00 | 0.00 | 0.00 | 55 | 1012.4 |
| 20260507094533 | 13 | 267 | 6.4 | 12.9 | 0.00 | 0.00 | 0.00 | 57 | 1012.5 |
| 20260507093032 | 13 | 289 | 6.4 | 11.3 | 0.00 | 0.00 | 0.00 | 53 | 1012.1 |
| 20260507091538 | 14 | 278 | 8.0 | 14.5 | 0.00 | 0.00 | 0.00 | 53 | 1011.7 |
| 20260507090035 | 14 | 300 | 9.7 | 19.3 | 0.00 | 0.00 | 0.00 | 52 | 1011.8 |
| 20260507084540 | 15 | 286 | 12.9 | 29.0 | 0.00 | 0.00 | 0.00 | 51 | 1011.5 |
| 20260507083028 | 13 | 325 | 20.9 | 37.0 | 0.00 | 0.00 | 0.00 | 56 | 1011.6 |
| 20260507081530 | 13 | 290 | 9.7 | 16.1 | 0.00 | 0.00 | 0.00 | 58 | 1011.0 |
| 20260507080030 | 13 | 272 | 8.0 | 14.5 | 0.00 | 0.00 | 0.00 | 57 | 1010.8 |
| 20260507074530 | 13 | 267 | 11.3 | 22.5 | 0.00 | 0.00 | 0.00 | 53 | 1010.9 |
| 20260507073028 | 13 | 252 | 12.9 | 22.5 | 0.00 | 0.00 | 0.00 | 53 | 1010.9 |
| 20260507071532 | 13 | 263 | 11.3 | 17.7 | 0.00 | 0.00 | 0.00 | 54 | 1010.8 |
| 20260507070041 | 13 | 244 | 8.0 | 14.5 | 0.00 | 0.00 | 0.00 | 55 | 1010.9 |
| 20260507064532 | 13 | 297 | 4.8 | 14.5 | 0.00 | 0.00 | 0.00 | 53 | 1010.7 |
| 20260507063035 | 13 | 272 | 9.7 | 11.3 | 0.00 | 0.00 | 0.00 | 53 | 1010.7 |
| 20260507061528 | 15 | 267 | 8.0 | 17.7 | 0.00 | 0.00 | 0.00 | 49 | 1010.7 |
| 20260507060028 | 16 | 246 | 9.7 | 20.9 | 0.00 | 0.00 | 0.00 | 47 | 1010.6 |
| 20260507054540 | 16 | 269 | 14.5 | 24.1 | 0.00 | 0.00 | 0.00 | 47 | 1010.6 |
| 20260507053030 | 16 | 259 | 12.9 | 27.4 | 0.00 | 0.00 | 0.00 | 47 | 1010.6 |
| 20260507051531 | 16 | 263 | 14.5 | 22.5 | 0.00 | 0.00 | 0.00 | 47 | 1010.6 |
| 20260507050040 | 16 | 267 | 14.5 | 25.7 | 0.00 | 0.00 | 0.00 | 46 | 1010.7 |
| 20260507044530 | 16 | 257 | 12.9 | 24.1 | 0.00 | 0.00 | 0.00 | 44 | 1010.8 |
| 20260507043030 | 17 | 267 | 9.7 | 20.9 | 0.00 | 0.00 | 0.00 | 43 | 1010.9 |
| 20260507041529 | 17 | 255 | 9.7 | 17.7 | 0.00 | 0.00 | 0.00 | 42 | 1010.8 |
| 20260507040031 | 17 | 246 | 8.0 | 14.5 | 0.00 | 0.00 | 0.00 | 41 | 1010.7 |
| 20260507034530 | 17 | 265 | 6.4 | 12.9 | 0.00 | 0.00 | 0.00 | 40 | 1010.6 |
| 20260507033030 | 17 | 267 | 11.3 | 19.3 | 0.00 | 0.00 | 0.00 | 40 | 1010.6 |
| 20260507031529 | 17 | 267 | 14.5 | 22.5 | 0.00 | 0.00 | 0.00 | 39 | 1010.6 |
| 20260507030031 | 18 | 284 | 14.5 | 22.5 | 0.00 | 0.00 | 0.00 | 38 | 1010.4 |
| 20260507024536 | 18 | 292 | 11.3 | 17.7 | 0.00 | 0.00 | 0.00 | 35 | 1010.5 |